Terminal Aerodrome Forecast
Issued by NWS

Home | Current Version | Previous Version | Text Only | Print | Product List | Glossary On
Versions: 1 2 3 4 5 6 7 8 9 10 11 12 13 14 15 16 17 18 19 20 21 22
046
FTUS44 KTSA 252004 AAA
TAFXNA
TAF AMD
KXNA 252004Z 2520/2618 18019G26KT P6SM FEW030
     FM252130 18011KT P6SM BKN025
     FM260600 18007KT 4SM BR OVC015=

USA.gov is the U.S. government's official web portal to all federal, state and local government web resources and services.